Time;durP1;ratioP1;P1;durP2;ratioP2;P2;SDS_P1;SDS_P2;PMS_P1;PMS_P2;Temp;Humidity;BMP_temperature;BMP_pressure;BME280_temperature;BME280_humidity;BME280_pressure;Samples;Min_cycle;Max_cycle;Signal;HPM_P1;HPM_P2
2023/03/10 00:01:18;;;;;;;20.20;15.70;;;;;;;-1.12;100.00;97782.11;436678;1255;142215;-72
2023/03/10 00:11:23;;;;;;;22.50;16.10;;;;;;;-1.07;100.00;97784.52;436776;1251;141947;-71
2023/03/10 00:21:31;;;;;;;23.10;15.50;;;;;;;-1.02;100.00;97781.87;437055;1251;141159;-68
2023/03/10 00:31:38;;;;;;;21.10;15.20;;;;;;;-0.98;100.00;97766.73;436951;1251;143812;-71
2023/03/10 00:41:48;;;;;;;19.30;15.30;;;;;;;-0.95;100.00;97740.16;436935;1254;142862;-72
2023/03/10 00:51:55;;;;;;;19.80;14.20;;;;;;;-0.89;100.00;97734.55;437086;1252;141907;-71
2023/03/10 01:02:02;;;;;;;15.60;12.30;;;;;;;-0.82;100.00;97706.20;436773;1251;141873;-70
2023/03/10 01:12:09;;;;;;;18.10;13.00;;;;;;;-0.72;100.00;97698.17;436966;1253;144112;-71
2023/03/10 01:22:14;;;;;;;15.60;11.50;;;;;;;-0.69;100.00;97666.94;436628;1253;145200;-72
2023/03/10 01:32:20;;;;;;;19.90;13.50;;;;;;;-0.68;100.00;97644.72;435807;1251;143627;-70
2023/03/10 01:42:26;;;;;;;19.40;13.90;;;;;;;-0.66;100.00;97634.80;436887;1252;142704;-72
2023/03/10 01:52:34;;;;;;;19.80;14.30;;;;;;;-0.69;100.00;97624.13;436879;1254;141552;-71
2023/03/10 02:02:45;;;;;;;20.00;14.80;;;;;;;-0.71;100.00;97604.13;436120;1253;145403;-71
2023/03/10 02:12:50;;;;;;;20.70;13.90;;;;;;;-0.68;100.00;97594.52;437230;1251;142335;-71
2023/03/10 02:22:56;;;;;;;20.90;16.20;;;;;;;-0.62;100.00;97590.25;435846;1253;142801;-71
2023/03/10 02:33:05;;;;;;;25.70;17.90;;;;;;;-0.61;100.00;97583.66;436924;1253;143424;-70
2023/03/10 02:43:18;;;;;;;25.90;18.20;;;;;;;-0.63;100.00;97569.02;436797;1254;142905;-72
2023/03/10 02:53:27;;;;;;;25.80;17.40;;;;;;;-0.62;100.00;97559.17;436488;1255;143324;-71
2023/03/10 03:03:33;;;;;;;32.00;21.60;;;;;;;-0.61;100.00;97540.20;437019;1254;142899;-71
2023/03/10 03:13:39;;;;;;;33.70;23.00;;;;;;;-0.57;100.00;97522.33;436461;1255;200573;-71
2023/03/10 03:23:45;;;;;;;33.90;23.00;;;;;;;-0.57;100.00;97503.91;435936;1254;143103;-71
2023/03/10 03:33:51;;;;;;;39.70;23.20;;;;;;;-0.55;100.00;97488.02;437119;1253;142228;-71
2023/03/10 03:43:57;;;;;;;38.10;24.60;;;;;;;-0.54;100.00;97486.40;436197;1253;145400;-69
2023/03/10 03:54:03;;;;;;;42.10;23.60;;;;;;;-0.51;100.00;97460.15;436585;1255;144076;-70
2023/03/10 04:04:09;;;;;;;37.80;25.70;;;;;;;-0.47;100.00;97444.80;436354;1253;143401;-71
2023/03/10 04:14:15;;;;;;;42.50;27.00;;;;;;;-0.46;100.00;97426.53;436093;1252;142204;-71
2023/03/10 04:24:20;;;;;;;39.70;23.60;;;;;;;-0.41;100.00;97405.60;437149;1254;141648;-69
2023/03/10 04:34:26;;;;;;;41.90;26.60;;;;;;;-0.37;100.00;97376.86;438166;1250;142651;-70
2023/03/10 04:44:32;;;;;;;47.80;29.60;;;;;;;-0.42;100.00;97356.17;436301;1251;143891;-70
2023/03/10 04:54:38;;;;;;;50.10;31.40;;;;;;;-0.40;100.00;97334.38;436760;1254;181990;-69
2023/03/10 05:04:44;;;;;;;50.60;30.00;;;;;;;-0.33;100.00;97333.52;437220;1251;142293;-71
2023/03/10 05:14:50;;;;;;;44.30;26.60;;;;;;;-0.27;100.00;97330.59;436205;1253;143730;-69
2023/03/10 05:24:55;;;;;;;49.70;30.30;;;;;;;-0.10;100.00;97325.52;437024;1255;142822;-69
2023/03/10 05:35:01;;;;;;;52.60;33.20;;;;;;;0.06;100.00;97304.98;436328;1253;142825;-71
2023/03/10 05:45:10;;;;;;;51.50;31.10;;;;;;;0.28;100.00;97284.96;437189;1251;143353;-70
2023/03/10 05:55:18;;;;;;;43.50;26.50;;;;;;;0.56;100.00;97270.90;437633;1253;143348;-71
2023/03/10 06:05:24;;;;;;;44.40;28.00;;;;;;;0.86;100.00;97250.84;436432;1254;142413;-69
2023/03/10 06:15:30;;;;;;;46.10;28.50;;;;;;;1.22;100.00;97240.69;437314;1255;143531;-71
2023/03/10 06:25:36;;;;;;;35.00;24.00;;;;;;;1.90;100.00;97223.07;437915;1254;143944;-72
2023/03/10 06:35:42;;;;;;;33.00;21.70;;;;;;;2.60;100.00;97222.83;436667;1250;142280;-72
2023/03/10 06:45:50;;;;;;;28.50;18.80;;;;;;;2.93;100.00;97223.54;437224;1251;142793;-73
2023/03/10 06:55:58;;;;;;;;;;;;;;;3.09;100.00;97222.02;445585;1250;142441;-72
2023/03/10 07:06:05;;;;;;;28.40;18.70;;;;;;;3.28;100.00;97211.69;451048;1251;128058;-71
2023/03/10 07:16:11;;;;;;;26.50;20.50;;;;;;;3.53;100.00;97202.67;442269;1255;142595;-73
2023/03/10 07:26:18;;;;;;;35.30;21.90;;;;;;;3.83;100.00;97192.65;436626;1254;143475;-72
2023/03/10 07:36:24;;;;;;;38.50;24.70;;;;;;;4.28;100.00;97187.20;440131;1256;142238;-73
2023/03/10 07:46:30;;;;;;;26.10;16.50;;;;;;;4.81;100.00;97191.98;437830;1255;142445;-73
2023/03/10 07:56:36;;;;;;;16.20;12.80;;;;;;;5.20;100.00;97190.14;436738;1255;143030;-71
2023/03/10 08:06:42;;;;;;;18.20;11.30;;;;;;;5.89;100.00;97175.15;442906;1253;141198;-72
2023/03/10 08:16:48;;;;;;;11.90;7.10;;;;;;;6.72;100.00;97167.69;444827;1251;142014;-72
2023/03/10 08:26:54;;;;;;;15.40;8.50;;;;;;;7.27;100.00;97147.55;442999;1251;142884;-72
2023/03/10 08:37:01;;;;;;;10.00;6.40;;;;;;;7.38;100.00;97140.35;446330;1251;143668;-72
2023/03/10 08:47:07;;;;;;;12.20;7.00;;;;;;;7.58;100.00;97133.02;446738;1250;143316;-72
2023/03/10 08:57:13;;;;;;;9.40;6.60;;;;;;;7.71;100.00;97132.14;437839;1254;142624;-73
2023/03/10 09:07:19;;;;;;;12.60;7.50;;;;;;;8.02;100.00;97134.21;437610;1254;142796;-72
2023/03/10 09:17:25;;;;;;;15.00;8.90;;;;;;;8.81;100.00;97127.33;436651;1251;142855;-72
2023/03/10 09:27:30;;;;;;;10.30;7.60;;;;;;;9.23;100.00;97109.42;437617;1254;145127;-73
2023/03/10 09:37:36;;;;;;;10.50;6.20;;;;;;;9.25;100.00;97106.57;437422;1251;142185;-72
2023/03/10 09:47:52;;;;;;;10.70;7.20;;;;;;;9.86;99.98;97106.13;438716;1251;143027;-72
2023/03/10 09:57:58;;;;;;;11.80;8.20;;;;;;;10.86;98.62;97101.81;437834;1254;142501;-73
2023/03/10 10:08:18;;;;;;;8.70;6.40;;;;;;;11.65;96.78;97094.02;437460;1254;140845;-73
2023/03/10 10:18:25;;;;;;;;;;;;;;;12.39;94.96;97086.30;438201;1251;141117;-74
2023/03/10 10:28:41;;;;;;;8.90;5.30;;;;;;;12.78;92.43;97076.54;438820;1251;127402;-74
2023/03/10 10:38:53;;;;;;;8.80;5.10;;;;;;;12.93;91.07;97077.02;438370;1251;141641;-74
2023/03/10 10:49:19;;;;;;;4.80;4.10;;;;;;;13.39;88.81;97071.95;438637;1251;140836;-73
2023/03/10 10:59:29;;;;;;;5.90;3.80;;;;;;;13.51;86.93;97063.20;438502;1251;140986;-73
2023/03/10 11:09:35;;;;;;;4.00;2.80;;;;;;;13.84;85.06;97049.87;438637;1251;142122;-74
2023/03/10 11:19:55;;;;;;;3.10;2.10;;;;;;;13.71;83.76;97039.14;437197;1251;141446;-74
2023/03/10 11:30:09;;;;;;;4.40;1.90;;;;;;;13.69;80.90;97021.59;438634;1254;210994;-74
2023/03/10 11:40:22;;;;;;;5.90;2.40;;;;;;;12.94;79.72;97025.58;440345;1251;141634;-75
2023/03/10 11:50:40;;;;;;;2.60;1.50;;;;;;;12.98;79.23;97026.33;439879;1251;140973;-75
2023/03/10 12:00:47;;;;;;;3.60;1.70;;;;;;;12.93;79.37;97021.48;437563;1254;140454;-74
2023/03/10 12:10:54;;;;;;;5.80;2.00;;;;;;;12.92;77.61;97016.66;437497;1251;141036;-76
2023/03/10 12:21:22;;;;;;;1.00;0.80;;;;;;;12.66;76.76;97005.46;437599;1253;210911;-75
2023/03/10 12:31:48;;;;;;;2.50;1.40;;;;;;;12.33;77.00;97002.98;437610;1253;140380;-76
2023/03/10 12:41:55;;;;;;;3.30;1.80;;;;;;;12.50;77.20;97003.37;437011;1251;211434;-75
2023/03/10 12:52:15;;;;;;;2.80;1.60;;;;;;;12.90;76.48;97004.63;437339;1250;140643;-76
2023/03/10 13:02:30;;;;;;;2.70;1.50;;;;;;;13.08;75.86;97009.95;436661;1250;141362;-76
2023/03/10 13:12:47;;;;;;;3.20;1.50;;;;;;;13.24;74.96;97009.15;437597;1254;141317;-76
2023/03/10 13:22:59;;;;;;;2.20;1.60;;;;;;;13.45;74.93;97022.87;437561;1250;141768;-76
2023/03/10 13:33:18;;;;;;;4.70;1.80;;;;;;;13.42;74.28;97021.35;436904;1254;209964;-77
2023/03/10 13:43:35;;;;;;;3.70;1.80;;;;;;;13.40;74.46;97019.27;437366;1250;141837;-76
2023/03/10 13:53:40;;;;;;;;;;;;;;;13.46;74.41;97017.13;436784;1251;197090;-77
2023/03/10 14:03:58;;;;;;;1.70;1.00;;;;;;;13.29;73.61;97003.44;438417;1250;128692;-76
2023/03/10 14:14:06;;;;;;;1.10;0.80;;;;;;;13.17;73.85;97013.27;436502;1254;142542;-77
2023/03/10 14:24:15;;;;;;;4.10;1.30;;;;;;;13.04;73.78;97012.33;437933;1250;141937;-76
2023/03/10 14:34:21;;;;;;;2.20;1.00;;;;;;;12.81;73.68;97014.09;438061;1251;140951;-76
2023/03/10 14:44:27;;;;;;;5.60;1.10;;;;;;;12.73;74.12;97005.48;436355;1250;142184;-76
2023/03/10 14:54:32;;;;;;;2.60;1.70;;;;;;;12.67;74.59;97009.35;437200;1250;141722;-76
2023/03/10 15:04:38;;;;;;;9.60;3.70;;;;;;;12.75;74.60;97011.56;437390;1250;141548;-76
2023/03/10 15:14:53;;;;;;;5.40;2.50;;;;;;;12.43;74.64;97004.53;436595;1250;141530;-76
2023/03/10 15:24:59;;;;;;;3.90;1.30;;;;;;;12.08;74.91;96998.68;437186;1250;141597;-75
2023/03/10 15:35:06;;;;;;;3.80;1.30;;;;;;;11.76;75.49;97000.24;436761;1250;142371;-76
2023/03/10 15:45:12;;;;;;;1.10;0.70;;;;;;;11.42;75.67;96995.37;437778;1251;141661;-75
2023/03/10 15:55:19;;;;;;;1.80;1.10;;;;;;;10.97;76.13;96994.09;437896;1251;141925;-75
2023/03/10 16:05:25;;;;;;;1.20;1.00;;;;;;;10.56;76.82;96990.50;437044;1250;141945;-75
2023/03/10 16:15:30;;;;;;;2.40;1.90;;;;;;;10.22;77.13;96987.14;437421;1251;143576;-76
2023/03/10 16:25:36;;;;;;;5.40;3.10;;;;;;;9.89;77.85;96981.12;439807;1250;142229;-75
2023/03/10 16:35:42;;;;;;;5.80;3.90;;;;;;;9.62;78.57;96973.91;437125;1250;143290;-75
2023/03/10 16:45:49;;;;;;;6.40;4.40;;;;;;;9.37;79.25;96974.78;443818;1251;143017;-74
2023/03/10 16:56:05;;;;;;;10.60;6.30;;;;;;;9.25;80.04;96970.12;436835;1250;142602;-74
2023/03/10 17:06:13;;;;;;;37.90;23.90;;;;;;;9.04;80.91;96964.29;437229;1254;141130;-74
2023/03/10 17:16:22;;;;;;;16.60;11.70;;;;;;;8.95;81.19;96956.97;437189;1250;142406;-74
2023/03/10 17:26:28;;;;;;;18.80;11.20;;;;;;;8.83;81.68;96952.54;436117;1250;142950;-74
2023/03/10 17:36:34;;;;;;;18.10;15.20;;;;;;;8.64;82.28;96955.82;437136;1250;143086;-76
2023/03/10 17:46:40;;;;;;;26.10;18.20;;;;;;;8.49;82.94;96954.98;436969;1250;142117;-75
2023/03/10 17:56:46;;;;;;;28.60;19.00;;;;;;;8.34;83.66;96947.50;435169;1254;142563;-70
2023/03/10 18:06:52;;;;;;;27.60;19.40;;;;;;;8.04;84.12;96936.46;437057;1250;141630;-76
2023/03/10 18:16:58;;;;;;;35.80;23.40;;;;;;;7.72;84.94;96936.38;436217;1251;142220;-74
2023/03/10 18:27:03;;;;;;;31.60;21.60;;;;;;;7.52;86.17;96924.29;437256;1254;142532;-75
2023/03/10 18:37:09;;;;;;;34.40;22.60;;;;;;;7.41;86.60;96919.20;436783;1250;142939;-74
2023/03/10 18:47:15;;;;;;;34.80;23.20;;;;;;;7.42;87.13;96907.92;436468;1251;141864;-76
2023/03/10 18:57:21;;;;;;;37.10;24.60;;;;;;;7.39;87.35;96894.45;437240;1254;141893;-74
2023/03/10 19:07:26;;;;;;;35.40;24.30;;;;;;;7.33;87.85;96883.04;437147;1254;141327;-74
2023/03/10 19:17:34;;;;;;;35.90;22.70;;;;;;;7.31;88.00;96869.89;436648;1251;144830;-74
2023/03/10 19:27:40;;;;;;;34.60;21.40;;;;;;;7.35;88.13;96867.23;437457;1250;142748;-75
2023/03/10 19:37:46;;;;;;;34.70;24.30;;;;;;;7.40;87.93;96865.15;437192;1251;140666;-72
2023/03/10 19:47:52;;;;;;;36.50;22.90;;;;;;;7.43;87.77;96858.27;436404;1251;141640;-72
2023/03/10 19:57:58;;;;;;;33.10;20.80;;;;;;;7.43;87.85;96838.81;436844;1254;141864;-72
2023/03/10 20:08:04;;;;;;;33.60;24.20;;;;;;;7.48;88.12;96836.71;436291;1251;142387;-72
2023/03/10 20:18:09;;;;;;;31.00;20.40;;;;;;;7.48;88.47;96818.83;436874;1252;142736;-73
2023/03/10 20:28:16;;;;;;;28.80;19.80;;;;;;;7.52;88.59;96805.06;437204;1251;143543;-72
2023/03/10 20:38:22;;;;;;;26.60;17.50;;;;;;;7.60;88.60;96785.80;436843;1254;144417;-71
2023/03/10 20:48:28;;;;;;;32.00;22.50;;;;;;;7.58;88.38;96787.04;437122;1253;141610;-73
2023/03/10 20:58:34;;;;;;;45.10;29.00;;;;;;;7.47;88.81;96804.09;437007;1251;143315;-73
2023/03/10 21:08:39;;;;;;;30.50;20.10;;;;;;;7.28;90.07;96799.59;436206;1250;142843;-71
2023/03/10 21:18:45;;;;;;;33.00;19.80;;;;;;;7.19;91.68;96783.80;437025;1251;144331;-73
2023/03/10 21:28:51;;;;;;;33.00;19.90;;;;;;;7.05;92.51;96779.14;436847;1250;141450;-72
2023/03/10 21:38:57;;;;;;;45.70;24.40;;;;;;;6.75;93.44;96772.58;436777;1255;145957;-71
2023/03/10 21:49:03;;;;;;;26.70;16.30;;;;;;;6.52;93.84;96772.26;436868;1253;142413;-71
2023/03/10 21:59:09;;;;;;;21.50;12.90;;;;;;;6.48;93.92;96761.86;436202;1254;142855;-70
2023/03/10 22:09:15;;;;;;;20.40;11.40;;;;;;;6.42;93.44;96747.95;437190;1255;141434;-71
2023/03/10 22:19:21;;;;;;;13.70;9.40;;;;;;;6.32;93.30;96745.02;436778;1254;141724;-70
2023/03/10 22:29:26;;;;;;;8.60;5.20;;;;;;;6.31;93.04;96743.89;436220;1254;141308;-72
2023/03/10 22:39:32;;;;;;;8.80;5.70;;;;;;;6.32;92.82;96745.42;437266;1250;147650;-71
2023/03/10 22:49:40;;;;;;;13.30;7.50;;;;;;;6.10;92.57;96724.34;436783;1251;143916;-71
2023/03/10 22:59:46;;;;;;;8.00;5.70;;;;;;;5.79;92.69;96716.99;436488;1252;141618;-71
2023/03/10 23:09:52;;;;;;;7.90;4.50;;;;;;;5.56;93.07;96710.54;436489;1255;142428;-71
2023/03/10 23:19:58;;;;;;;9.90;6.20;;;;;;;5.42;93.38;96708.63;435936;1253;141776;-70
2023/03/10 23:30:05;;;;;;;6.80;3.30;;;;;;;5.34;93.76;96716.95;437337;1255;141990;-72
2023/03/10 23:40:14;;;;;;;5.20;4.10;;;;;;;5.28;93.92;96712.51;436868;1254;142104;-72
2023/03/10 23:50:22;;;;;;;6.20;3.90;;;;;;;5.15;94.30;96701.95;436599;1250;142417;-71
